createdAt,value
2022-11-10T00:01:10.653Z,7.63
2022-11-10T00:03:56.042Z,7.56
2022-11-10T00:06:41.279Z,7.38
2022-11-10T00:09:26.996Z,7.60
2022-11-10T00:12:12.325Z,7.47
2022-11-10T00:14:58.022Z,7.04
2022-11-10T00:17:43.315Z,7.41
2022-11-10T00:20:29.177Z,7.39
2022-11-10T00:23:14.007Z,7.41
2022-11-10T00:25:59.405Z,7.51
2022-11-10T00:28:44.566Z,7.47
2022-11-10T00:31:29.803Z,7.39
2022-11-10T00:34:16.774Z,7.29
2022-11-10T00:37:02.880Z,7.23
2022-11-10T00:39:48.304Z,7.10
2022-11-10T00:42:33.296Z,7.12
2022-11-10T00:45:18.495Z,7.25
2022-11-10T00:48:03.828Z,7.30
2022-11-10T00:50:48.906Z,7.23
2022-11-10T00:53:34.634Z,7.15
2022-11-10T00:56:22.046Z,7.10
2022-11-10T00:59:07.679Z,6.92
2022-11-10T01:01:53.048Z,7.18
2022-11-10T01:04:38.522Z,7.09
2022-11-10T01:07:23.453Z,7.19
2022-11-10T01:10:08.861Z,7.12
2022-11-10T01:12:53.919Z,7.24
2022-11-10T01:15:40.079Z,7.32
2022-11-10T01:18:25.473Z,7.37
2022-11-10T01:21:11.192Z,7.39
2022-11-10T01:23:56.086Z,7.28
2022-11-10T01:26:41.590Z,7.36
2022-11-10T01:29:26.444Z,7.38
2022-11-10T01:32:11.801Z,7.30
2022-11-10T01:34:56.818Z,7.32
2022-11-10T01:37:42.220Z,7.37
2022-11-10T01:40:27.507Z,7.42
2022-11-10T01:43:13.620Z,7.37
2022-11-10T01:46:02.505Z,7.25
2022-11-10T01:48:49.854Z,7.21
2022-11-10T01:51:48.866Z,7.10
2022-11-10T01:54:39.205Z,7.16
2022-11-10T01:57:24.271Z,6.85
2022-11-10T02:00:13.608Z,6.77
2022-11-10T02:03:38.977Z,6.99
2022-11-10T02:06:28.045Z,6.99
2022-11-10T02:09:13.169Z,7.01
2022-11-10T02:11:58.911Z,6.96
2022-11-10T02:14:43.839Z,6.95
2022-11-10T02:17:29.433Z,6.97
2022-11-10T02:20:18.689Z,6.92
2022-11-10T02:23:31.946Z,6.94
2022-11-10T02:26:27.738Z,6.78
2022-11-10T02:29:13.695Z,6.69
2022-11-10T02:31:58.963Z,6.73
2022-11-10T02:34:45.116Z,6.44
2022-11-10T02:37:30.051Z,6.60
2022-11-10T02:40:15.315Z,6.51
2022-11-10T02:43:00.758Z,6.34
2022-11-10T02:45:46.137Z,6.51
2022-11-10T02:48:31.301Z,6.50
2022-11-10T02:51:16.533Z,6.38
2022-11-10T02:54:01.483Z,6.43
2022-11-10T02:56:47.525Z,6.42
2022-11-10T02:59:32.833Z,6.41
2022-11-10T03:02:17.992Z,6.38
2022-11-10T03:05:03.739Z,6.42
2022-11-10T03:07:56.647Z,6.39
2022-11-10T03:10:41.834Z,6.42
2022-11-10T03:13:39.999Z,6.46
2022-11-10T03:16:30.527Z,6.17
2022-11-10T03:19:15.897Z,6.28
2022-11-10T03:22:01.052Z,6.37
2022-11-10T03:24:46.098Z,6.15
2022-11-10T03:27:31.613Z,6.27
2022-11-10T03:30:16.918Z,6.31
2022-11-10T03:33:02.267Z,6.44
2022-11-10T03:35:47.931Z,6.25
2022-11-10T03:38:32.740Z,6.26
2022-11-10T03:41:20.146Z,6.35
2022-11-10T03:44:05.885Z,6.33
2022-11-10T03:46:51.797Z,6.31
2022-11-10T03:49:37.495Z,6.07
2022-11-10T03:52:22.737Z,6.19
2022-11-10T03:55:09.517Z,6.32
2022-11-10T03:57:54.782Z,6.35
2022-11-10T04:00:39.985Z,6.37
2022-11-10T04:03:25.687Z,6.36
2022-11-10T04:06:11.762Z,6.26
2022-11-10T04:08:56.739Z,6.04
2022-11-10T04:11:41.902Z,5.88
2022-11-10T04:14:27.387Z,5.97
2022-11-10T04:17:12.678Z,6.04
2022-11-10T04:19:57.901Z,6.06
2022-11-10T04:22:42.816Z,6.16
2022-11-10T04:25:28.104Z,6.19
2022-11-10T04:28:13.399Z,6.15
2022-11-10T04:30:58.652Z,6.11
2022-11-10T04:33:44.838Z,6.05
2022-11-10T04:36:32.738Z,5.88
2022-11-10T04:39:17.917Z,5.87
2022-11-10T04:42:03.235Z,5.86
2022-11-10T04:44:48.870Z,5.96
2022-11-10T04:47:34.061Z,6.00
2022-11-10T04:50:19.306Z,5.79
2022-11-10T04:53:04.602Z,5.73
2022-11-10T04:55:50.182Z,5.95
2022-11-10T04:58:36.835Z,5.98
2022-11-10T05:01:25.001Z,6.02
2022-11-10T05:04:10.436Z,6.05
2022-11-10T05:06:56.853Z,5.89
2022-11-10T05:09:42.400Z,5.99
2022-11-10T05:12:27.616Z,6.06
2022-11-10T05:15:12.928Z,6.03
2022-11-10T05:17:57.872Z,5.93
2022-11-10T05:20:43.343Z,5.83
2022-11-10T05:23:28.714Z,5.92
2022-11-10T05:26:16.554Z,5.97
2022-11-10T05:29:02.106Z,5.94
2022-11-10T05:31:51.413Z,5.86
2022-11-10T05:34:36.773Z,5.86
2022-11-10T05:37:22.027Z,5.90
2022-11-10T05:40:07.687Z,5.82
2022-11-10T05:42:53.156Z,5.77
2022-11-10T05:45:38.314Z,5.80
2022-11-10T05:48:23.582Z,5.78
2022-11-10T05:51:08.673Z,5.71
2022-11-10T05:53:54.025Z,5.76
2022-11-10T05:56:39.153Z,5.72
2022-11-10T05:59:24.456Z,5.72
2022-11-10T06:02:09.441Z,5.73
2022-11-10T06:04:54.869Z,5.66
2022-11-10T06:07:40.086Z,5.86
2022-11-10T06:10:26.089Z,5.82
2022-11-10T06:13:14.258Z,5.78
2022-11-10T06:15:59.738Z,5.77
2022-11-10T06:18:44.847Z,5.62
2022-11-10T06:21:30.064Z,5.72
2022-11-10T06:24:15.299Z,5.80
2022-11-10T06:27:00.705Z,5.77
2022-11-10T06:29:45.574Z,5.64
2022-11-10T06:32:30.747Z,5.68
2022-11-10T06:35:17.116Z,5.73
2022-11-10T06:38:05.141Z,5.85
2022-11-10T06:40:50.501Z,6.04
2022-11-10T06:43:35.803Z,6.01
2022-11-10T06:46:20.909Z,6.15
2022-11-10T06:49:06.227Z,6.19
2022-11-10T06:51:52.249Z,6.33
2022-11-10T06:54:37.764Z,6.34
2022-11-10T06:57:23.023Z,6.31
2022-11-10T07:00:09.367Z,6.07
2022-11-10T07:03:05.768Z,6.27
2022-11-10T07:05:51.362Z,6.13
2022-11-10T07:08:36.771Z,6.23
2022-11-10T07:11:21.845Z,6.22
2022-11-10T07:14:07.625Z,6.06
2022-11-10T07:16:52.773Z,6.14
2022-11-10T07:19:37.591Z,6.12
2022-11-10T07:22:22.832Z,6.06
2022-11-10T07:25:08.700Z,6.19
2022-11-10T07:28:01.364Z,6.13
2022-11-10T07:30:46.824Z,6.31
2022-11-10T07:33:31.842Z,6.26
2022-11-10T07:36:17.020Z,6.11
2022-11-10T07:39:02.643Z,6.24
2022-11-10T07:41:52.271Z,6.26
2022-11-10T07:44:38.076Z,6.27
2022-11-10T07:47:24.354Z,6.09
2022-11-10T07:50:10.274Z,6.24
2022-11-10T07:53:15.375Z,6.23
2022-11-10T07:56:01.143Z,6.22
2022-11-10T07:58:47.318Z,6.17
2022-11-10T08:01:32.826Z,6.40
2022-11-10T08:04:18.526Z,6.45
2022-11-10T08:07:04.367Z,6.52
2022-11-10T08:09:50.001Z,6.43
2022-11-10T08:12:35.679Z,6.41
2022-11-10T08:15:21.186Z,6.28
2022-11-10T08:18:22.784Z,6.63
2022-11-10T08:21:08.281Z,6.71
2022-11-10T08:23:53.863Z,6.99
2022-11-10T08:26:39.225Z,6.87
2022-11-10T08:29:24.742Z,7.01
2022-11-10T08:32:10.173Z,6.77
2022-11-10T08:34:55.643Z,6.82
2022-11-10T08:37:41.093Z,7.16
2022-11-10T08:40:26.590Z,7.39
2022-11-10T08:43:13.385Z,7.34
2022-11-10T08:45:59.017Z,7.33
2022-11-10T08:48:43.959Z,7.30
2022-11-10T08:51:29.308Z,7.12
2022-11-10T08:54:15.060Z,7.23
2022-11-10T08:57:00.480Z,7.19
2022-11-10T08:59:45.575Z,7.31
2022-11-10T09:02:30.795Z,7.63
2022-11-10T09:05:16.362Z,7.57
2022-11-10T09:08:02.142Z,7.66
2022-11-10T09:10:49.094Z,7.72
2022-11-10T09:13:34.693Z,7.87
2022-11-10T09:16:20.286Z,7.99
2022-11-10T09:19:05.547Z,8.26
2022-11-10T09:21:50.671Z,8.46
2022-11-10T09:24:35.794Z,8.57
2022-11-10T09:27:20.943Z,8.49
2022-11-10T09:30:07.378Z,8.22
2022-11-10T09:32:56.524Z,8.40
2022-11-10T09:35:42.382Z,8.38
2022-11-10T09:38:27.275Z,8.22
2022-11-10T09:41:15.177Z,8.34
2022-11-10T09:44:16.390Z,8.43
2022-11-10T09:47:06.886Z,8.66
2022-11-10T09:49:57.415Z,8.98
2022-11-10T09:52:44.829Z,9.18
2022-11-10T09:55:44.814Z,8.97
2022-11-10T09:58:39.280Z,9.09
2022-11-10T10:01:33.361Z,9.09
2022-11-10T10:04:29.673Z,9.24
2022-11-10T10:07:30.365Z,9.30
2022-11-10T10:10:28.488Z,9.49
2022-11-10T10:13:49.882Z,9.78
2022-11-10T10:16:55.167Z,9.83
2022-11-10T10:20:06.152Z,9.88
2022-11-10T10:23:13.212Z,9.49
2022-11-10T10:25:58.434Z,9.24
2022-11-10T10:28:48.461Z,9.18
2022-11-10T10:31:42.693Z,9.37
2022-11-10T10:34:31.585Z,9.19
2022-11-10T10:37:22.733Z,9.18
2022-11-10T10:40:14.183Z,9.14
2022-11-10T10:42:59.254Z,9.22
2022-11-10T10:45:44.777Z,9.17
2022-11-10T10:48:30.409Z,9.31
2022-11-10T10:51:29.585Z,9.33
2022-11-10T10:54:29.433Z,9.37
2022-11-10T10:57:21.976Z,9.56
2022-11-10T11:00:19.864Z,9.51
2022-11-10T11:03:07.559Z,9.84
2022-11-10T11:06:05.599Z,9.93
2022-11-10T11:09:00.379Z,9.75
2022-11-10T11:11:58.623Z,9.42
2022-11-10T11:14:46.194Z,9.55
2022-11-10T11:17:31.855Z,9.72
2022-11-10T11:20:16.958Z,9.90
2022-11-10T11:23:22.457Z,9.93
2022-11-10T11:26:30.684Z,10.16
2022-11-10T11:29:53.134Z,10.10
2022-11-10T11:32:50.332Z,9.83
2022-11-10T11:35:47.942Z,9.93
2022-11-10T11:39:04.389Z,9.84
2022-11-10T11:42:19.976Z,9.90
2022-11-10T11:45:19.617Z,9.65
2022-11-10T11:48:27.304Z,9.78
2022-11-10T11:51:23.133Z,9.91
2022-11-10T11:54:25.581Z,9.93
2022-11-10T11:57:28.612Z,9.90
2022-11-10T12:00:16.780Z,9.80
2022-11-10T12:03:16.853Z,9.68
2022-11-10T12:06:28.249Z,9.80
2022-11-10T12:09:25.330Z,10.01
2022-11-10T12:12:13.500Z,10.06
2022-11-10T12:15:57.650Z,9.38
2022-11-10T12:18:49.672Z,9.34
2022-11-10T12:22:00.081Z,9.48
2022-11-10T12:25:24.226Z,9.46
2022-11-10T12:28:18.453Z,9.61
2022-11-10T12:31:10.923Z,9.76
2022-11-10T12:34:02.086Z,9.70
2022-11-10T12:36:48.229Z,9.70
2022-11-10T12:40:16.335Z,9.86
2022-11-10T12:43:06.378Z,9.95
2022-11-10T12:45:56.856Z,9.81
2022-11-10T12:48:48.323Z,9.63
2022-11-10T12:51:46.231Z,9.59
2022-11-10T12:54:31.095Z,9.80
2022-11-10T12:57:20.177Z,9.71
2022-11-10T13:00:27.383Z,9.55
2022-11-10T13:03:26.483Z,9.65
2022-11-10T13:06:49.863Z,9.61
2022-11-10T13:09:42.288Z,9.65
2022-11-10T13:12:27.565Z,9.49
2022-11-10T13:15:39.116Z,9.36
2022-11-10T13:18:44.610Z,9.50
2022-11-10T13:21:52.733Z,9.68
2022-11-10T13:24:40.018Z,9.87
2022-11-10T13:27:46.458Z,9.48
2022-11-10T13:30:45.893Z,9.39
2022-11-10T13:33:38.379Z,9.42
2022-11-10T13:36:44.466Z,9.37
2022-11-10T13:39:32.564Z,9.35
2022-11-10T13:42:21.465Z,9.53
2022-11-10T13:45:34.613Z,9.49
2022-11-10T13:48:26.923Z,9.32
2022-11-10T13:51:18.250Z,9.36
2022-11-10T13:54:15.671Z,9.60
2022-11-10T13:57:21.366Z,9.63
2022-11-10T14:00:16.103Z,9.31
2022-11-10T14:03:04.240Z,9.44
2022-11-10T14:06:07.630Z,9.41
2022-11-10T14:08:56.330Z,9.36
2022-11-10T14:11:50.425Z,9.39
2022-11-10T14:15:00.650Z,9.59
2022-11-10T14:17:54.763Z,9.58
2022-11-10T14:20:43.310Z,9.54
2022-11-10T14:23:45.289Z,9.54
2022-11-10T14:26:40.522Z,9.49
2022-11-10T14:29:37.413Z,9.46
2022-11-10T14:32:24.349Z,9.20
2022-11-10T14:35:25.308Z,9.39
2022-11-10T14:38:21.113Z,9.47
2022-11-10T14:41:14.254Z,9.27
2022-11-10T14:44:07.485Z,9.24
2022-11-10T14:46:53.714Z,8.85
2022-11-10T14:49:38.892Z,9.03
2022-11-10T14:52:24.453Z,9.09
2022-11-10T14:55:35.369Z,9.00
2022-11-10T14:58:25.244Z,8.96
2022-11-10T15:01:25.531Z,8.89
2022-11-10T15:04:11.876Z,8.96
2022-11-10T15:06:59.217Z,9.07
2022-11-10T15:10:08.029Z,9.10
2022-11-10T15:13:27.220Z,9.12
2022-11-10T15:16:28.516Z,9.35
2022-11-10T15:19:50.405Z,9.44
2022-11-10T15:22:36.358Z,9.36
2022-11-10T15:25:24.969Z,9.12
2022-11-10T15:28:12.938Z,9.11
2022-11-10T15:31:01.486Z,9.12
2022-11-10T15:33:50.380Z,9.03
2022-11-10T15:36:37.976Z,8.99
2022-11-10T15:39:23.834Z,9.12
2022-11-10T15:42:19.061Z,8.76
2022-11-10T15:45:04.566Z,9.05
2022-11-10T15:47:50.545Z,8.82
2022-11-10T15:50:36.365Z,8.63
2022-11-10T15:53:27.873Z,8.42
2022-11-10T15:56:15.910Z,8.39
2022-11-10T15:59:02.520Z,8.38
2022-11-10T16:01:48.246Z,8.48
2022-11-10T16:04:33.864Z,8.31
2022-11-10T16:07:18.905Z,8.36
2022-11-10T16:10:07.059Z,8.19
2022-11-10T16:12:52.797Z,7.75
2022-11-10T16:15:39.211Z,8.05
2022-11-10T16:18:27.773Z,7.62
2022-11-10T16:21:15.402Z,7.89
2022-11-10T16:24:00.475Z,7.85
2022-11-10T16:26:45.658Z,7.81
2022-11-10T16:29:32.305Z,7.69
2022-11-10T16:32:17.841Z,7.51
2022-11-10T16:35:03.129Z,7.41
2022-11-10T16:37:48.761Z,7.44
2022-11-10T16:40:33.616Z,7.44
2022-11-10T16:43:18.985Z,7.43
2022-11-10T16:46:15.954Z,7.33
2022-11-10T16:49:03.697Z,7.36
2022-11-10T16:51:49.396Z,7.19
2022-11-10T16:54:34.825Z,7.31
2022-11-10T16:57:19.691Z,7.31
2022-11-10T17:00:05.565Z,7.40
2022-11-10T17:03:02.040Z,7.39
2022-11-10T17:05:48.640Z,7.39
2022-11-10T17:08:35.690Z,7.47
2022-11-10T17:11:21.870Z,7.56
2022-11-10T17:14:10.085Z,7.71
2022-11-10T17:16:58.357Z,7.78
2022-11-10T17:19:44.241Z,7.76
2022-11-10T17:22:33.414Z,7.83
2022-11-10T17:25:29.943Z,7.74
2022-11-10T17:28:17.276Z,7.60
2022-11-10T17:31:02.630Z,7.69
2022-11-10T17:33:47.912Z,7.66
2022-11-10T17:36:33.204Z,7.60
2022-11-10T17:39:18.743Z,7.57
2022-11-10T17:42:13.733Z,7.60
2022-11-10T17:45:02.223Z,7.68
2022-11-10T17:47:59.167Z,7.73
2022-11-10T17:50:44.836Z,7.75
2022-11-10T17:53:30.289Z,7.44
2022-11-10T17:56:15.860Z,7.51
2022-11-10T17:59:03.916Z,7.60
2022-11-10T18:01:49.077Z,7.65
2022-11-10T18:04:34.461Z,7.69
2022-11-10T18:07:19.602Z,7.60
2022-11-10T18:10:07.155Z,7.48
2022-11-10T18:12:52.365Z,7.50
2022-11-10T18:15:40.962Z,7.55
2022-11-10T18:18:26.425Z,7.58
2022-11-10T18:21:11.620Z,7.54
2022-11-10T18:23:56.778Z,7.44
2022-11-10T18:26:42.326Z,7.38
2022-11-10T18:29:27.673Z,7.25
2022-11-10T18:32:13.402Z,7.06
2022-11-10T18:34:58.706Z,6.89
2022-11-10T18:37:43.582Z,6.91
2022-11-10T18:40:29.037Z,6.60
2022-11-10T18:43:14.322Z,6.97
2022-11-10T18:45:59.874Z,7.00
2022-11-10T18:48:45.902Z,7.01
2022-11-10T18:51:31.218Z,7.09
2022-11-10T18:54:16.554Z,7.01
2022-11-10T18:57:01.750Z,7.02
2022-11-10T18:59:46.934Z,7.02
2022-11-10T19:02:32.365Z,7.21
2022-11-10T19:05:17.730Z,7.26
2022-11-10T19:08:03.322Z,7.13
2022-11-10T19:10:48.477Z,7.05
2022-11-10T19:13:33.722Z,6.83
2022-11-10T19:16:19.267Z,6.90
2022-11-10T19:19:04.794Z,6.85
2022-11-10T19:21:50.060Z,6.78
2022-11-10T19:24:53.758Z,6.90
2022-11-10T19:27:41.067Z,6.89
2022-11-10T19:30:26.357Z,6.83
2022-11-10T19:33:11.544Z,6.81
2022-11-10T19:35:56.803Z,6.65
2022-11-10T19:38:42.389Z,6.69
2022-11-10T19:41:30.507Z,6.74
2022-11-10T19:44:15.512Z,6.68
2022-11-10T19:47:00.876Z,6.65
2022-11-10T19:49:46.127Z,6.66
2022-11-10T19:52:31.365Z,6.63
2022-11-10T19:55:16.746Z,6.50
2022-11-10T19:58:01.907Z,6.73
2022-11-10T20:00:48.560Z,6.61
2022-11-10T20:03:33.854Z,6.45
2022-11-10T20:06:21.646Z,6.49
2022-11-10T20:09:07.149Z,6.48
2022-11-10T20:11:52.445Z,6.48
2022-11-10T20:14:37.769Z,6.50
2022-11-10T20:17:23.045Z,6.40
2022-11-10T20:20:08.880Z,6.26
2022-11-10T20:22:53.813Z,6.27
2022-11-10T20:25:39.227Z,6.24
2022-11-10T20:28:24.103Z,5.92
2022-11-10T20:31:15.561Z,6.04
2022-11-10T20:34:00.874Z,5.96
2022-11-10T20:36:46.091Z,6.01
2022-11-10T20:39:31.069Z,6.15
2022-11-10T20:42:16.355Z,6.20
2022-11-10T20:45:01.455Z,6.13
2022-11-10T20:47:47.263Z,6.20
2022-11-10T20:50:32.587Z,6.12
2022-11-10T20:53:17.761Z,6.15
2022-11-10T20:56:03.735Z,6.14
2022-11-10T20:58:48.928Z,6.31
2022-11-10T21:01:34.554Z,6.18
2022-11-10T21:04:20.074Z,6.19
2022-11-10T21:07:05.317Z,6.13
2022-11-10T21:09:50.522Z,6.02
2022-11-10T21:12:36.074Z,6.19
2022-11-10T21:15:21.598Z,6.27
2022-11-10T21:18:06.566Z,6.29
2022-11-10T21:20:51.953Z,6.33
2022-11-10T21:23:37.076Z,6.34
2022-11-10T21:26:22.442Z,6.35
2022-11-10T21:29:07.326Z,6.17
2022-11-10T21:31:52.512Z,6.27
2022-11-10T21:34:37.538Z,6.13
2022-11-10T21:37:23.202Z,6.27
2022-11-10T21:40:08.536Z,6.11
2022-11-10T21:42:54.828Z,5.95
2022-11-10T21:45:40.195Z,6.14
2022-11-10T21:48:25.528Z,6.24
2022-11-10T21:51:11.716Z,6.19
2022-11-10T21:53:57.240Z,6.19
2022-11-10T21:56:42.086Z,6.11
2022-11-10T21:59:27.492Z,6.09
2022-11-10T22:02:12.765Z,6.14
2022-11-10T22:04:58.241Z,6.06
2022-11-10T22:07:43.532Z,6.08
2022-11-10T22:10:28.731Z,6.05
2022-11-10T22:13:15.938Z,6.19
2022-11-10T22:16:01.536Z,6.07
2022-11-10T22:18:46.771Z,6.14
2022-11-10T22:21:31.706Z,6.05
2022-11-10T22:24:17.005Z,6.05
2022-11-10T22:27:04.114Z,6.15
2022-11-10T22:29:49.029Z,6.23
2022-11-10T22:32:34.344Z,6.09
2022-11-10T22:35:19.405Z,6.04
2022-11-10T22:38:07.291Z,6.06
2022-11-10T22:40:52.546Z,6.24
2022-11-10T22:43:37.777Z,6.16
2022-11-10T22:46:22.714Z,6.07
2022-11-10T22:49:10.782Z,6.03
2022-11-10T22:51:55.966Z,5.96
2022-11-10T22:54:41.172Z,5.95
2022-11-10T22:57:26.505Z,6.03
2022-11-10T23:00:12.453Z,5.86
2022-11-10T23:02:57.612Z,6.02
2022-11-10T23:05:42.820Z,5.87
2022-11-10T23:08:28.498Z,5.74
2022-11-10T23:11:17.461Z,5.66
2022-11-10T23:14:02.941Z,5.62
2022-11-10T23:16:48.638Z,5.64
2022-11-10T23:19:33.825Z,5.58
2022-11-10T23:22:18.988Z,5.66
2022-11-10T23:25:04.953Z,5.47
2022-11-10T23:27:50.154Z,5.70
2022-11-10T23:30:35.392Z,5.64
2022-11-10T23:33:21.214Z,5.81
2022-11-10T23:36:07.461Z,5.70
2022-11-10T23:38:54.675Z,5.67
2022-11-10T23:41:39.718Z,5.79
2022-11-10T23:44:24.877Z,5.85
2022-11-10T23:47:10.139Z,5.76
2022-11-10T23:49:55.690Z,5.74
2022-11-10T23:52:40.736Z,5.61
2022-11-10T23:55:25.825Z,5.69
2022-11-10T23:58:11.514Z,5.56
